Pos.Doss.NomPrenomTempsVit.Moy.Allure Pos. catégCatégorie Points Club
1 7 CORTES LECLOU AMADEO 00:26:30 14.94 00:04:01 1Garcons 12 à 15 ans 1000 RFCL
2 73 FADDA ALEXIS 00:27:24 14.45 00:04:09 2Garcons 12 à 15 ans 941 WACO MJ SPORT
3 1427 FRANCOIS GILLES 00:27:34 14.37 00:04:11 3Garcons 12 à 15 ans 882
4 108 LEMAIRE SACHA 00:28:03 14.12 00:04:15 4Garcons 12 à 15 ans 824 WACO
5 1138 FRANCK AMIRA 00:28:17 14 00:04:17 1Débutante F
6 7531 STASSEN ERIC 00:28:41 13.81 00:04:21 1Débutant H MERGELLOPERS
7 1291 DISPA BASILE 00:29:46 13.3 00:04:31 2Débutant H
8 1195 JEHOULET LUCA 00:29:50 13.27 00:04:31 5Garcons 12 à 15 ans 765
9 1080 PIEDBOEUF MAXIME 00:30:04 13.17 00:04:33 6Garcons 12 à 15 ans 706
10 1024 AIROLDI FRANCIS 00:30:23 13.03 00:04:36 3Débutant H
11 1285 MELON JULIEN 00:30:55 12.81 00:04:41 4Débutant H
12 224 RIHON DIEGO 00:31:05 12.74 00:04:43 7Garcons 12 à 15 ans 647
13 1394 LO MONACO NOAH 00:31:15 12.67 00:04:44 ?
14 1389 COOSEMANS ANGOINE 00:31:16 12.67 00:04:44 8Garcons 12 à 15 ans 588
15 111 LEFORT PAULINE 00:31:34 12.54 00:04:47 1Filles 12 à 15 ans 529 A.M.C.
16 95 LEFORT LOUISE 00:31:34 12.54 00:04:47 2Filles 12 à 15 ans 471 A.M.C.
17 139 RIBANT LÉA 00:32:14 12.29 00:04:53 3Filles 12 à 15 ans 412 HAUTES-FAGNES
18 105 RIBANT THIERRY 00:32:28 12.2 00:04:55 5Débutant H
19 1472 MEIRE ADRIEN 00:32:56 12.02 00:04:59 6Débutant H
20 1253 GALLO ALESSANDRO 00:33:11 11.93 00:05:02 7Débutant H
21 1160 FIEVEZ LISIANNE 00:33:15 11.91 00:05:02 2Débutante F
22 1440 AUSSEM RAPHAEL 00:34:02 11.64 00:05:09 8Débutant H
23 1424 MOROSANLI ROXANA-DIANA 00:34:36 11.45 00:05:15 3Débutante F
24 1227 CLARINVAL RENAUD 00:35:09 11.27 00:05:20 9Débutant H
25 1031 DESWERT ERIC 00:35:11 11.26 00:05:20 10Débutant H
26 1207 BEULERS JULIE 00:35:13 11.24 00:05:20 4Débutante F
27 1261 BOSSY DELPHINE 00:35:55 11.03 00:05:27 5Débutante F
28 1286 DI NARO GIOVANNI 00:35:59 11.01 00:05:27 11Débutant H
29 1023 MARCOURS LUCA 00:36:01 10.99 00:05:27 9Garcons 12 à 15 ans 353
30 1202 BOSSON MAUD 00:36:13 10.93 00:05:29 6Débutante F
31 1263 DICKX MARIE-ANGE 00:37:08 10.66 00:05:38 7Débutante F
32 1351 TOMAGRA JEAN-PAUL 00:37:09 10.66 00:05:38 12Débutant H
33 1469 LAMY BENJAMIN 00:37:13 10.64 00:05:38 13Débutant H
34 120 VAN LAETHEM GABRIELLE 00:37:38 10.52 00:05:42 8Débutante F
35 1417 LENART BENOIT 00:37:48 10.48 00:05:44 14Débutant H
36 1019 DIAZ DELMIRO JOHN 00:38:24 10.31 00:05:49 15Débutant H
37 1165 PALUMBO SONIA 00:38:48 10.21 00:05:53 9Débutante F
38 1306 WENKIN SOPHIE 00:39:11 10.11 00:05:56 10Débutante F
39 1331 GONDA ELISE 00:40:23 9.81 00:06:07 11Débutante F
40 1443 FRECHES KATHY 00:40:36 9.75 00:06:09 12Débutante F
41 1442 STYLIANIDIS ELENI 00:40:36 9.75 00:06:09 13Débutante F
42 1441 LEMAIRE SYLVIE 00:40:42 9.73 00:06:10 14Débutante F
43 1335 PUELINGS SVEN 00:41:04 9.64 00:06:13 16Débutant H
44 1372 HARDY SEJIR 00:41:11 9.62 00:06:14 17Débutant H
45 1370 HARDY HENRY 00:41:12 9.61 00:06:15 18Débutant H
46 1225 VANBRABANT JOELLE 00:41:21 9.58 00:06:16 15Débutante F
47 1471 REMACLE ESTELLE 00:41:32 9.53 00:06:18 16Débutante F
48 1311 ROUSSEAU VALERIE 00:41:59 9.43 00:06:22 17Débutante F
49 1254 BALDEWYNS MARIE 00:42:57 9.22 00:06:30 18Débutante F
50 1336 ZALLOT CHRISTOPHE 00:43:02 9.2 00:06:31 19Débutant H
51 1339 PAQUE JORDANE 00:43:02 9.2 00:06:31 19Débutante F
52 1347 VANDERBEMDEN GERALDINE 00:43:03 9.2 00:06:31 20Débutante F
53 1445 LEONARD LAURENT 00:43:03 9.2 00:06:31 20Débutant H
54 1411 NOULIN LAURENT 00:43:05 9.19 00:06:32 21Débutant H
55 1179 TASSIN LEA 00:44:00 9 00:06:40 4Filles 12 à 15 ans 294
56 1210 DECKERS LAURA 00:44:06 8.98 00:06:41 21Débutante F
57 1213 DECKERS FABIAN 00:44:07 8.98 00:06:41 22Débutant H
58 1345 GILLON NATHALIE 00:44:19 8.94 00:06:43 22Débutante F
59 1237 HEIWE NATHAN 00:44:33 8.89 00:06:45 10Garcons 12 à 15 ans 235
60 1247 CHEMOIX MARTIN 00:45:09 8.77 00:06:50 11Garcons 12 à 15 ans 176
61 7548 DEDRIJ JULIE 00:45:18 8.74 00:06:52 23Débutante F
62 1296 RONGY EMILIE 00:45:19 8.74 00:06:52 12Garcons 12 à 15 ans 118
63 1300 YILDIRIM BUSRA 00:45:27 8.71 00:06:53 5Filles 12 à 15 ans 59
64 1321 GRANDMAISON JULLES 00:46:04 8.6 00:06:59 ?
65 1325 ROUSSEAU TONY 00:46:04 8.6 00:06:59 23Débutant H
66 1366 ALAIMO JESSICA 00:46:07 8.59 00:06:59 24Débutante F
67 1375 LE VAN AURELIE 00:46:07 8.59 00:06:59 25Débutante F
68 1206 BAPS CINDY 00:46:22 8.54 00:07:02 26Débutante F
69 1081 DE SMEDT JACQUELINE 00:46:24 8.53 00:07:02 27Débutante F
70 1209 MOOREN FABIENNE 00:46:24 8.53 00:07:02 28Débutante F
71 1275 LEBOUTTE ANN-SOPHIE 00:46:36 8.5 00:07:04 ?
72 1449 BROKA ANNE-MARIE 00:46:45 8.47 00:07:05 29Débutante F
73 1450 FOSSION VANESSA 00:46:47 8.46 00:07:05 30Débutante F
74 1180 TASSIN ANAIS 00:47:00 8.43 00:07:07 ?
75 1299 RENARD EVELINE 00:47:04 8.41 00:07:08 31Débutante F
76 1307 GARNIER AURORE 00:47:04 8.41 00:07:08 ?
77 1214 DOYEN NATHALIE 00:47:08 8.4 00:07:08 32Débutante F
78 1036 TONACHELLA CLAUDIA 00:47:25 8.35 00:07:11 33Débutante F
79 1451 ERNON GUILLAUME 00:47:29 8.34 00:07:12 24Débutant H
80 1266 ROOSELEIR ROSE-MARIE 00:48:09 8.22 00:07:18 ?
81 1258 IANDOLINO TINA 00:48:38 8.14 00:07:22 34Débutante F
82 1418 DE BRAUWERE SANDRINE 00:48:45 8.12 00:07:23 35Débutante F
83 1084 WATHELET BERNADETTE 00:48:48 8.11 00:07:24 36Débutante F
84 1265 KNUTS JAYSON 00:48:51 8.11 00:07:24 25Débutant H
85 1200 MAJEAN CHRISTEL 00:50:20 7.87 00:07:38 37Débutante F
86 1281 SACRE MEGAN 00:51:02 7.76 00:07:44 38Débutante F
87 1280 NACCANELLA GINO 00:51:02 7.76 00:07:44 26Débutant H
Jogging Coeur Ansois 2018
Distance : 6.6 kms
87 coureurs